AAR3625 ZSSS-RKSS
Flight info
| Callsign | AAR3625 |
|---|---|
| Flight time | N/A |
| Altitude | 33000 |
| Route | LAM71D LAMEN/N0470F390 A593 SADLI Y590 ELGEP Y722 OLMEN OLMEN2U |
| Aircraft | A333/H-SDE3GHIJ2J3J5M1RVWXY/LB2D1 |
Departure
| Time | 2026-04-30 10:14 |
|---|---|
| Airport | Shanghai Hongqiao International Airport (ZSSS) |
Arrival
| Time | N/A |
|---|---|
| Airport | Gimpo International Airport (RKSS) |
| Time | Latitude | Longitude | Altitude | Speed | Heading |
|---|---|---|---|---|---|
| 2026-04-30 09:48 | 31.19791 | 121.34068 | 19 ft | 0 kts | 137° |
| 2026-04-30 10:01 | 31.19813 | 121.34044 | 19 ft | 2 kts | 137° |
| 2026-04-30 10:01 | 31.19824 | 121.34032 | 19 ft | 2 kts | 137° |
| 2026-04-30 10:01 | 31.19835 | 121.34020 | 19 ft | 2 kts | 137° |
| 2026-04-30 10:02 | 31.19860 | 121.34000 | 19 ft | 2 kts | 173° |
| 2026-04-30 10:02 | 31.19875 | 121.34002 | 18 ft | 2 kts | 200° |
| 2026-04-30 10:02 | 31.19888 | 121.34011 | 18 ft | 2 kts | 229° |
| 2026-04-30 10:02 | 31.19895 | 121.34027 | 18 ft | 2 kts | 257° |
| 2026-04-30 10:03 | 31.19896 | 121.34035 | 18 ft | 1 kts | 272° |
| 2026-04-30 10:03 | 31.19896 | 121.34040 | 18 ft | 0 kts | 268° |
| 2026-04-30 10:05 | 31.19895 | 121.34006 | 18 ft | 7 kts | 268° |
| 2026-04-30 10:05 | 31.19893 | 121.33938 | 18 ft | 9 kts | 268° |
| 2026-04-30 10:05 | 31.19889 | 121.33846 | 16 ft | 12 kts | 266° |
| 2026-04-30 10:05 | 31.19884 | 121.33761 | 16 ft | 0 kts | 266° |
| 2026-04-30 10:06 | 31.19884 | 121.33749 | 16 ft | 3 kts | 266° |
| 2026-04-30 10:06 | 31.19882 | 121.33714 | 17 ft | 5 kts | 266° |
| 2026-04-30 10:06 | 31.19879 | 121.33650 | 18 ft | 9 kts | 266° |
| 2026-04-30 10:06 | 31.19875 | 121.33541 | 18 ft | 16 kts | 267° |
| 2026-04-30 10:07 | 31.19821 | 121.33436 | 19 ft | 17 kts | 181° |
| 2026-04-30 10:07 | 31.19687 | 121.33445 | 19 ft | 21 kts | 177° |
| 2026-04-30 10:07 | 31.19516 | 121.33453 | 19 ft | 26 kts | 178° |
| 2026-04-30 10:07 | 31.19332 | 121.33466 | 16 ft | 27 kts | 175° |
| 2026-04-30 10:08 | 31.19147 | 121.33477 | 16 ft | 25 kts | 176° |
| 2026-04-30 10:08 | 31.18979 | 121.33486 | 16 ft | 22 kts | 176° |
| 2026-04-30 10:08 | 31.18825 | 121.33496 | 19 ft | 21 kts | 177° |
| 2026-04-30 10:08 | 31.18662 | 121.33505 | 19 ft | 23 kts | 176° |
| 2026-04-30 10:09 | 31.18499 | 121.33516 | 19 ft | 23 kts | 176° |
| 2026-04-30 10:09 | 31.18358 | 121.33508 | 19 ft | 13 kts | 228° |
| 2026-04-30 10:09 | 31.18347 | 121.33451 | 19 ft | 0 kts | 268° |
| 2026-04-30 10:11 | 31.18346 | 121.33427 | 19 ft | 5 kts | 267° |
| 2026-04-30 10:11 | 31.18345 | 121.33373 | 19 ft | 7 kts | 277° |
| 2026-04-30 10:11 | 31.18376 | 121.33330 | 19 ft | 7 kts | 343° |
| 2026-04-30 10:12 | 31.18401 | 121.33328 | 19 ft | 0 kts | 359° |
| 2026-04-30 10:13 | 31.18507 | 121.33324 | 19 ft | 44 kts | 357° |
| 2026-04-30 10:13 | 31.19155 | 121.33288 | 19 ft | 137 kts | 357° |
| 2026-04-30 10:13 | 31.20348 | 121.33206 | 204 ft | 195 kts | 357° |
| 2026-04-30 10:14 | 31.21728 | 121.33122 | 1110 ft | 211 kts | 359° |
| 2026-04-30 10:14 | 31.23198 | 121.33069 | 2297 ft | 216 kts | 359° |
| 2026-04-30 10:14 | 31.26611 | 121.32955 | 3032 ft | 302 kts | 359° |
| 2026-04-30 10:15 | 31.28887 | 121.32872 | 3311 ft | 337 kts | 359° |
| 2026-04-30 10:15 | 31.31239 | 121.32783 | 3949 ft | 343 kts | 358° |
| 2026-04-30 10:15 | 31.33654 | 121.32690 | 4693 ft | 347 kts | 358° |
| 2026-04-30 10:15 | 31.36051 | 121.32598 | 5477 ft | 348 kts | 358° |
| 2026-04-30 10:16 | 31.38501 | 121.32505 | 5672 ft | 353 kts | 358° |
| 2026-04-30 10:16 | 31.40925 | 121.32621 | 6066 ft | 352 kts | 9° |
| 2026-04-30 10:16 | 31.43284 | 121.33472 | 7012 ft | 356 kts | 25° |
| 2026-04-30 10:17 | 31.46633 | 121.37601 | 9183 ft | 362 kts | 65° |
| 2026-04-30 10:17 | 31.48520 | 121.43206 | 11087 ft | 374 kts | 70° |
| 2026-04-30 10:17 | 31.49425 | 121.46049 | 11981 ft | 380 kts | 70° |
| 2026-04-30 10:18 | 31.50363 | 121.48994 | 12856 ft | 385 kts | 70° |
| 2026-04-30 10:18 | 31.51301 | 121.51937 | 13674 ft | 390 kts | 70° |
| 2026-04-30 10:18 | 31.52250 | 121.54915 | 14453 ft | 394 kts | 70° |
| 2026-04-30 10:19 | 31.54194 | 121.61015 | 15905 ft | 404 kts | 71° |
| 2026-04-30 10:19 | 31.55168 | 121.64089 | 16580 ft | 409 kts | 71° |
| 2026-04-30 10:19 | 31.56143 | 121.67248 | 17234 ft | 413 kts | 72° |
| 2026-04-30 10:19 | 31.57129 | 121.70453 | 17861 ft | 418 kts | 72° |
| 2026-04-30 10:20 | 31.58130 | 121.73683 | 18442 ft | 421 kts | 72° |
| 2026-04-30 10:20 | 31.60169 | 121.80158 | 18886 ft | 431 kts | 71° |
| 2026-04-30 10:20 | 31.61231 | 121.83461 | 19282 ft | 432 kts | 71° |
| 2026-04-30 10:21 | 31.62323 | 121.86805 | 19337 ft | 441 kts | 71° |
| 2026-04-30 10:21 | 31.63426 | 121.90153 | 19417 ft | 447 kts | 70° |
| 2026-04-30 10:21 | 31.64564 | 121.93580 | 19646 ft | 449 kts | 70° |
| 2026-04-30 10:21 | 31.65702 | 121.96989 | 19864 ft | 451 kts | 70° |
| 2026-04-30 10:22 | 31.66853 | 122.00459 | 20340 ft | 454 kts | 70° |
| 2026-04-30 10:22 | 31.67996 | 122.03919 | 20711 ft | 460 kts | 70° |
| 2026-04-30 10:22 | 31.69138 | 122.07418 | 21204 ft | 461 kts | 71° |
| 2026-04-30 10:22 | 31.70288 | 122.11009 | 21533 ft | 466 kts | 71° |
| 2026-04-30 10:23 | 31.71398 | 122.14556 | 21939 ft | 468 kts | 71° |
| 2026-04-30 10:23 | 31.72512 | 122.18207 | 22309 ft | 472 kts | 72° |
| 2026-04-30 10:23 | 31.73591 | 122.21838 | 22623 ft | 475 kts | 72° |
| 2026-04-30 10:23 | 31.74639 | 122.25538 | 22977 ft | 476 kts | 75° |
| 2026-04-30 10:24 | 31.75079 | 122.29359 | 23223 ft | 474 kts | 92° |
| 2026-04-30 10:24 | 31.74588 | 122.33176 | 23570 ft | 470 kts | 108° |
| 2026-04-30 10:24 | 31.73627 | 122.36860 | 23819 ft | 473 kts | 110° |
| 2026-04-30 10:24 | 31.72604 | 122.40563 | 24052 ft | 475 kts | 110° |
| 2026-04-30 10:25 | 31.71546 | 122.44272 | 24322 ft | 477 kts | 111° |
| 2026-04-30 10:25 | 31.70477 | 122.47954 | 24544 ft | 479 kts | 111° |
| 2026-04-30 10:25 | 31.69390 | 122.51661 | 24737 ft | 481 kts | 111° |
| 2026-04-30 10:25 | 31.68303 | 122.55338 | 24915 ft | 482 kts | 111° |
| 2026-04-30 10:26 | 31.67328 | 122.59132 | 25028 ft | 486 kts | 105° |
| 2026-04-30 10:26 | 31.66795 | 122.63077 | 25199 ft | 489 kts | 98° |
| 2026-04-30 10:26 | 31.66736 | 122.67091 | 25283 ft | 494 kts | 88° |
| 2026-04-30 10:26 | 31.67139 | 122.71096 | 25406 ft | 495 kts | 84° |
| 2026-04-30 10:27 | 31.67619 | 122.75085 | 25484 ft | 496 kts | 84° |
| 2026-04-30 10:27 | 31.68112 | 122.79069 | 25530 ft | 497 kts | 83° |
| 2026-04-30 10:27 | 31.68635 | 122.83124 | 25581 ft | 498 kts | 83° |
| 2026-04-30 10:27 | 31.69158 | 122.87140 | 25636 ft | 498 kts | 83° |
| 2026-04-30 10:28 | 31.69686 | 122.91160 | 25688 ft | 498 kts | 83° |
| 2026-04-30 10:28 | 31.70224 | 122.95243 | 25739 ft | 499 kts | 83° |
| 2026-04-30 10:28 | 31.70522 | 122.97508 | 25768 ft | 500 kts | 83° |
| 2026-04-30 10:28 | 31.71057 | 123.01554 | 25843 ft | 501 kts | 82° |
| 2026-04-30 10:29 | 31.71587 | 123.05550 | 26308 ft | 496 kts | 82° |
| 2026-04-30 10:29 | 31.72121 | 123.09583 | 26822 ft | 495 kts | 82° |
| 2026-04-30 10:29 | 31.72644 | 123.13536 | 27274 ft | 495 kts | 82° |
| 2026-04-30 10:29 | 31.73175 | 123.17555 | 27648 ft | 496 kts | 82° |
| 2026-04-30 10:30 | 31.73704 | 123.21554 | 28019 ft | 497 kts | 82° |
| 2026-04-30 10:30 | 31.74232 | 123.25560 | 28392 ft | 497 kts | 82° |
| 2026-04-30 10:30 | 31.74730 | 123.29411 | 28738 ft | 446 kts | 82° |
| 2026-04-30 10:30 | 31.75163 | 123.32799 | 29045 ft | 396 kts | 83° |
| 2026-04-30 10:31 | 31.75252 | 123.35947 | 28180 ft | 386 kts | 91° |
| 2026-04-30 10:31 | 31.75109 | 123.39069 | 26079 ft | 409 kts | 96° |
| 2026-04-30 10:31 | 31.74906 | 123.42117 | 19721 ft | 504 kts | 97° |
| 2026-04-30 10:31 | 31.74408 | 123.45760 | 13370 ft | 512 kts | 103° |
| 2026-04-30 10:32 | 31.73146 | 123.49194 | 13059 ft | 410 kts | 126° |
| 2026-04-30 10:32 | 31.71506 | 123.51600 | 12702 ft | 358 kts | 128° |
| 2026-04-30 10:32 | 31.70230 | 123.53949 | 11937 ft | 332 kts | 120° |
| 2026-04-30 10:32 | 31.69112 | 123.56161 | 11256 ft | 309 kts | 120° |
| 2026-04-30 10:33 | 31.68145 | 123.58350 | 10326 ft | 300 kts | 117° |
| 2026-04-30 10:33 | 31.67207 | 123.60535 | 9040 ft | 302 kts | 117° |
| 2026-04-30 10:33 | 31.66286 | 123.62685 | 7762 ft | 301 kts | 117° |
| 2026-04-30 10:33 | 31.65349 | 123.64838 | 6676 ft | 293 kts | 117° |
| 2026-04-30 10:34 | 31.64430 | 123.66906 | 5671 ft | 284 kts | 118° |
| 2026-04-30 10:34 | 31.63513 | 123.68903 | 4579 ft | 280 kts | 118° |
| 2026-04-30 10:34 | 31.62649 | 123.70863 | 3899 ft | 259 kts | 115° |
| 2026-04-30 10:34 | 31.61971 | 123.72669 | 3547 ft | 239 kts | 110° |
| 2026-04-30 10:35 | 31.61518 | 123.74590 | 1822 ft | 270 kts | 99° |